PWSweather.com
Personal Weather Stations
Station Observations
SHAHALMS1
Eftra, Falkenberg, HA

EftraFalkenberg, HA

Lat: 56.85, Lon: 12.65

Elevation: 140

Station Type:

http://hem.passagen.se/risarp101

High Low Average
Temperature 58.6°F14.8°C 49.3°F9.6°C 54.1°F12.3°C
Dew Point 47.6°F8.7°C 39.2°F4.0°C 44.0°F6.7°C
Winds 9.8 mph 15.8 kmh 1.1 mph 1.8 kmh 6.0 mph W9.7 kmh W
Wind Gusts 25.8 mph41.5 kmh 6.4 mph10.3 kmh 15.0 mph24.1 kmh
Humidity 76% 65% 69%
Pressure 29.92 in1013.2 mb 29.71 in1006.1 mb -
Precipitation 0.00 in0.0 mm - -
Hour Temp Dew Point Humidity Winds Wind Gusts Pressure Precip Precip Rate Daily Precip Total
12:00 AM 52.9°F11.6°C 41.4°F5.2°C 65% 8.1 mph W13.0 kmh W 22.2 mph35.7 kmh 29.92 in1013.2 mb 0.00 in0.0 mm 0.00 in0.0 mm 0.00 in0.0 mm
12:15 AM 52.9°F11.6°C 41.4°F5.2°C 65% 9.1 mph W14.6 kmh W 21.8 mph35.1 kmh 29.92 in1013.2 mb 0.00 in0.0 mm 0.00 in0.0 mm 0.00 in0.0 mm
12:30 AM 52.9°F11.6°C 41.4°F5.2°C 65% 8.9 mph W14.3 kmh W 20.0 mph32.2 kmh 29.92 in1013.2 mb 0.00 in0.0 mm 0.00 in0.0 mm 0.00 in0.0 mm
12:45 AM 52.9°F11.6°C 41.4°F5.2°C 65% 9.8 mph W15.8 kmh W 23.3 mph37.5 kmh 29.89 in1012.2 mb 0.00 in0.0 mm 0.00 in0.0 mm 0.00 in0.0 mm
01:00 AM 52.9°F11.6°C 41.4°F5.2°C 65% 8.7 mph W14.0 kmh W 20.4 mph32.8 kmh 29.89 in1012.2 mb 0.00 in0.0 mm 0.00 in0.0 mm 0.00 in0.0 mm
01:15 AM 53.1°F11.7°C 41.6°F5.3°C 65% 9.2 mph W14.8 kmh W 22.9 mph36.9 kmh 29.89 in1012.2 mb 0.00 in0.0 mm 0.00 in0.0 mm 0.00 in0.0 mm
01:30 AM 53.1°F11.7°C 41.6°F5.3°C 65% 9.5 mph W15.3 kmh W 21.8 mph35.1 kmh 29.86 in1011.2 mb 0.00 in0.0 mm 0.00 in0.0 mm 0.00 in0.0 mm
01:45 AM 53.1°F11.7°C 41.6°F5.3°C 65% 9.7 mph W15.6 kmh W 20.8 mph33.5 kmh 29.86 in1011.2 mb 0.00 in0.0 mm 0.00 in0.0 mm 0.00 in0.0 mm
02:00 AM 53.1°F11.7°C 41.6°F5.3°C 65% 8.2 mph W13.2 kmh W 19.3 mph31.1 kmh 29.86 in1011.2 mb 0.00 in0.0 mm 0.00 in0.0 mm 0.00 in0.0 mm
02:15 AM 52.9°F11.6°C 41.4°F5.2°C 65% 7.4 mph W11.9 kmh W 16.1 mph25.9 kmh 29.83 in1010.2 mb 0.00 in0.0 mm 0.00 in0.0 mm 0.00 in0.0 mm
02:30 AM 52.9°F11.6°C 41.4°F5.2°C 65% 9.4 mph W15.1 kmh W 25.8 mph41.5 kmh 29.83 in1010.2 mb 0.00 in0.0 mm 0.00 in0.0 mm 0.00 in0.0 mm
02:45 AM 52.7°F11.5°C 41.3°F5.2°C 65% 8.6 mph W13.8 kmh W 20.8 mph33.5 kmh 29.86 in1011.2 mb 0.00 in0.0 mm 0.00 in0.0 mm 0.00 in0.0 mm
03:00 AM 52.7°F11.5°C 41.3°F5.2°C 65% 8.1 mph WSW13.0 kmh WSW 21.1 mph34.0 kmh 29.86 in1011.2 mb 0.00 in0.0 mm 0.00 in0.0 mm 0.00 in0.0 mm
03:15 AM 52.7°F11.5°C 41.3°F5.2°C 65% 8.8 mph W14.2 kmh W 23.6 mph38.0 kmh 29.86 in1011.2 mb 0.00 in0.0 mm 0.00 in0.0 mm 0.00 in0.0 mm
03:30 AM 52.7°F11.5°C 41.3°F5.2°C 65% 8.2 mph W13.2 kmh W 17.5 mph28.2 kmh 29.86 in1011.2 mb 0.00 in0.0 mm 0.00 in0.0 mm 0.00 in0.0 mm
03:45 AM 52.7°F11.5°C 41.7°F5.4°C 66% 8.5 mph W13.7 kmh W 20.8 mph33.5 kmh 29.83 in1010.2 mb 0.00 in0.0 mm 0.00 in0.0 mm 0.00 in0.0 mm
04:00 AM 52.7°F11.5°C 41.3°F5.2°C 65% 9.1 mph WSW14.6 kmh WSW 15.7 mph25.3 kmh 29.83 in1010.2 mb 0.00 in0.0 mm 0.00 in0.0 mm 0.00 in0.0 mm
04:15 AM 52.7°F11.5°C 41.3°F5.2°C 65% 8.3 mph W13.4 kmh W 16.5 mph26.6 kmh 29.83 in1010.2 mb 0.00 in0.0 mm 0.00 in0.0 mm 0.00 in0.0 mm
04:30 AM 52.5°F11.4°C 41.5°F5.3°C 66% 7.6 mph W12.2 kmh W 19.3 mph31.1 kmh 29.83 in1010.2 mb 0.00 in0.0 mm 0.00 in0.0 mm 0.00 in0.0 mm
04:45 AM 52.5°F11.4°C 41.5°F5.3°C 66% 6.9 mph W11.1 kmh W 16.8 mph27.0 kmh 29.83 in1010.2 mb 0.00 in0.0 mm 0.00 in0.0 mm 0.00 in0.0 mm
05:00 AM 52.5°F11.4°C 41.9°F5.5°C 67% 8.8 mph W14.2 kmh W 20.8 mph33.5 kmh 29.80 in1009.1 mb 0.00 in0.0 mm 0.00 in0.0 mm 0.00 in0.0 mm
05:15 AM 52.7°F11.5°C 42.0°F5.6°C 67% 7.3 mph W11.7 kmh W 14.7 mph23.7 kmh 29.80 in1009.1 mb 0.00 in0.0 mm 0.00 in0.0 mm 0.00 in0.0 mm
05:30 AM 52.7°F11.5°C 42.0°F5.6°C 67% 7.9 mph W12.7 kmh W 19.0 mph30.6 kmh 29.80 in1009.1 mb 0.00 in0.0 mm 0.00 in0.0 mm 0.00 in0.0 mm
05:45 AM 52.7°F11.5°C 42.0°F5.6°C 67% 7.3 mph W11.7 kmh W 17.2 mph27.7 kmh 29.80 in1009.1 mb 0.00 in0.0 mm 0.00 in0.0 mm 0.00 in0.0 mm
06:00 AM 52.7°F11.5°C 42.4°F5.8°C 68% 7.3 mph W11.7 kmh W 13.6 mph21.9 kmh 29.80 in1009.1 mb 0.00 in0.0 mm 0.00 in0.0 mm 0.00 in0.0 mm
06:15 AM 52.9°F11.6°C 42.6°F5.9°C 68% 6.9 mph W11.1 kmh W 22.5 mph36.2 kmh 29.80 in1009.1 mb 0.00 in0.0 mm 0.00 in0.0 mm 0.00 in0.0 mm
06:30 AM 53.1°F11.7°C 42.8°F6.0°C 68% 8.4 mph W13.5 kmh W 15.7 mph25.3 kmh 29.80 in1009.1 mb 0.00 in0.0 mm 0.00 in0.0 mm 0.00 in0.0 mm
06:45 AM 53.2°F11.8°C 43.3°F6.3°C 69% 8.2 mph W13.2 kmh W 14.0 mph22.5 kmh 29.80 in1009.1 mb 0.00 in0.0 mm 0.00 in0.0 mm 0.00 in0.0 mm
07:00 AM 53.4°F11.9°C 43.9°F6.6°C 70% 8.8 mph W14.2 kmh W 19.7 mph31.7 kmh 29.80 in1009.1 mb 0.00 in0.0 mm 0.00 in0.0 mm 0.00 in0.0 mm
07:15 AM 53.6°F12.0°C 44.0°F6.7°C 70% 8.9 mph W14.3 kmh W 22.5 mph36.2 kmh 29.80 in1009.1 mb 0.00 in0.0 mm 0.00 in0.0 mm 0.00 in0.0 mm
07:30 AM 53.8°F12.1°C 44.6°F7.0°C 71% 9.2 mph W14.8 kmh W 20.0 mph32.2 kmh 29.80 in1009.1 mb 0.00 in0.0 mm 0.00 in0.0 mm 0.00 in0.0 mm
07:45 AM 54.0°F12.2°C 44.8°F7.1°C 71% 7.4 mph W11.9 kmh W 15.4 mph24.8 kmh 29.80 in1009.1 mb 0.00 in0.0 mm 0.00 in0.0 mm 0.00 in0.0 mm
08:00 AM 54.3°F12.4°C 45.1°F7.3°C 71% 8.7 mph W14.0 kmh W 20.8 mph33.5 kmh 29.80 in1009.1 mb 0.00 in0.0 mm 0.00 in0.0 mm 0.00 in0.0 mm
08:15 AM 54.5°F12.5°C 44.9°F7.2°C 70% 7.6 mph W12.2 kmh W 19.0 mph30.6 kmh 29.80 in1009.1 mb 0.00 in0.0 mm 0.00 in0.0 mm 0.00 in0.0 mm
08:30 AM 55.6°F13.1°C 46.3°F7.9°C 71% 8.0 mph W12.9 kmh W 16.1 mph25.9 kmh 29.80 in1009.1 mb 0.00 in0.0 mm 0.00 in0.0 mm 0.00 in0.0 mm
08:45 AM 55.9°F13.3°C 45.9°F7.7°C 69% 7.4 mph W11.9 kmh W 15.0 mph24.1 kmh 29.80 in1009.1 mb 0.00 in0.0 mm 0.00 in0.0 mm 0.00 in0.0 mm
09:00 AM 55.9°F13.3°C 45.9°F7.7°C 69% 8.7 mph W14.0 kmh W 20.0 mph32.2 kmh 29.80 in1009.1 mb 0.00 in0.0 mm 0.00 in0.0 mm 0.00 in0.0 mm
09:15 AM 55.9°F13.3°C 45.5°F7.5°C 68% 8.2 mph W13.2 kmh W 20.8 mph33.5 kmh 29.80 in1009.1 mb 0.00 in0.0 mm 0.00 in0.0 mm 0.00 in0.0 mm
09:30 AM 56.1°F13.4°C 45.3°F7.4°C 67% 8.0 mph W12.9 kmh W 20.0 mph32.2 kmh 29.80 in1009.1 mb 0.00 in0.0 mm 0.00 in0.0 mm 0.00 in0.0 mm
09:45 AM 56.3°F13.5°C 45.5°F7.5°C 67% 8.2 mph W13.2 kmh W 20.8 mph33.5 kmh 29.77 in1008.1 mb 0.00 in0.0 mm 0.00 in0.0 mm 0.00 in0.0 mm
09:54 AM 56.3°F13.5°C 45.5°F7.5°C 67% 7.3 mph W11.7 kmh W 8.9 mph14.3 kmh 29.77 in1008.1 mb 0.00 in0.0 mm 0.00 in0.0 mm 0.00 in0.0 mm
10:00 AM 56.5°F13.6°C 46.0°F7.8°C 68% 6.9 mph W11.1 kmh W 13.6 mph21.9 kmh 29.77 in1008.1 mb 0.00 in0.0 mm 0.00 in0.0 mm 0.00 in0.0 mm
10:15 AM 57.0°F13.9°C 46.2°F7.9°C 67% 8.1 mph W13.0 kmh W 16.1 mph25.9 kmh 29.77 in1008.1 mb 0.00 in0.0 mm 0.00 in0.0 mm 0.00 in0.0 mm
10:30 AM 57.4°F14.1°C 46.5°F8.1°C 67% 8.4 mph W13.5 kmh W 23.6 mph38.0 kmh 29.77 in1008.1 mb 0.00 in0.0 mm 0.00 in0.0 mm 0.00 in0.0 mm
10:45 AM 57.9°F14.4°C 47.0°F8.3°C 67% 6.7 mph WSW10.8 kmh WSW 12.9 mph20.8 kmh 29.77 in1008.1 mb 0.00 in0.0 mm 0.00 in0.0 mm 0.00 in0.0 mm
11:00 AM 57.6°F14.2°C 46.3°F7.9°C 66% 6.3 mph W10.1 kmh W 15.7 mph25.3 kmh 29.80 in1009.1 mb 0.00 in0.0 mm 0.00 in0.0 mm 0.00 in0.0 mm
11:15 AM 57.6°F14.2°C 46.3°F7.9°C 66% 7.8 mph W12.6 kmh W 17.2 mph27.7 kmh 29.80 in1009.1 mb 0.00 in0.0 mm 0.00 in0.0 mm 0.00 in0.0 mm
11:30 AM 57.6°F14.2°C 45.9°F7.7°C 65% 6.8 mph W10.9 kmh W 15.7 mph25.3 kmh 29.77 in1008.1 mb 0.00 in0.0 mm 0.00 in0.0 mm 0.00 in0.0 mm
11:45 AM 57.0°F13.9°C 45.4°F7.4°C 65% 7.5 mph W12.1 kmh W 17.5 mph28.2 kmh 29.77 in1008.1 mb 0.00 in0.0 mm 0.00 in0.0 mm 0.00 in0.0 mm
12:00 PM 56.3°F13.5°C 44.7°F7.1°C 65% 6.1 mph W9.8 kmh W 13.6 mph21.9 kmh 29.77 in1008.1 mb 0.00 in0.0 mm 0.00 in0.0 mm 0.00 in0.0 mm
12:15 PM 55.9°F13.3°C 44.3°F6.8°C 65% 6.0 mph W9.7 kmh W 16.1 mph25.9 kmh 29.77 in1008.1 mb 0.00 in0.0 mm 0.00 in0.0 mm 0.00 in0.0 mm
12:30 PM 55.9°F13.3°C 44.7°F7.1°C 66% 5.9 mph W9.5 kmh W 15.4 mph24.8 kmh 29.77 in1008.1 mb 0.00 in0.0 mm 0.00 in0.0 mm 0.00 in0.0 mm
12:45 PM 56.5°F13.6°C 45.3°F7.4°C 66% 7.6 mph W12.2 kmh W 14.3 mph23.0 kmh 29.77 in1008.1 mb 0.00 in0.0 mm 0.00 in0.0 mm 0.00 in0.0 mm
01:00 PM 56.8°F13.8°C 46.0°F7.8°C 67% 6.5 mph W10.5 kmh W 12.9 mph20.8 kmh 29.74 in1007.1 mb 0.00 in0.0 mm 0.00 in0.0 mm 0.00 in0.0 mm
01:15 PM 57.6°F14.2°C 46.7°F8.2°C 67% 7.4 mph W11.9 kmh W 16.1 mph25.9 kmh 29.74 in1007.1 mb 0.00 in0.0 mm 0.00 in0.0 mm 0.00 in0.0 mm
01:30 PM 58.3°F14.6°C 47.4°F8.6°C 67% 7.8 mph W12.6 kmh W 16.1 mph25.9 kmh 29.74 in1007.1 mb 0.00 in0.0 mm 0.00 in0.0 mm 0.00 in0.0 mm
01:45 PM 58.6°F14.8°C 47.3°F8.5°C 66% 8.3 mph W13.4 kmh W 20.8 mph33.5 kmh 29.74 in1007.1 mb 0.00 in0.0 mm 0.00 in0.0 mm 0.00 in0.0 mm
02:00 PM 58.3°F14.6°C 46.6°F8.1°C 65% 8.2 mph W13.2 kmh W 20.4 mph32.8 kmh 29.74 in1007.1 mb 0.00 in0.0 mm 0.00 in0.0 mm 0.00 in0.0 mm
02:15 PM 57.6°F14.2°C 45.9°F7.7°C 65% 6.1 mph WSW9.8 kmh WSW 12.2 mph19.6 kmh 29.71 in1006.1 mb 0.00 in0.0 mm 0.00 in0.0 mm 0.00 in0.0 mm
02:30 PM 57.2°F14.0°C 46.7°F8.2°C 68% 5.4 mph WSW8.7 kmh WSW 10.4 mph16.7 kmh 29.74 in1007.1 mb 0.00 in0.0 mm 0.00 in0.0 mm 0.00 in0.0 mm
02:45 PM 56.7°F13.7°C 46.2°F7.9°C 68% 5.5 mph W8.9 kmh W 12.9 mph20.8 kmh 29.71 in1006.1 mb 0.00 in0.0 mm 0.00 in0.0 mm 0.00 in0.0 mm
03:00 PM 56.3°F13.5°C 46.6°F8.1°C 70% 6.2 mph W10.0 kmh W 13.6 mph21.9 kmh 29.74 in1007.1 mb 0.00 in0.0 mm 0.00 in0.0 mm 0.00 in0.0 mm
03:15 PM 55.8°F13.2°C 47.2°F8.4°C 73% 6.2 mph SW10.0 kmh SW 13.6 mph21.9 kmh 29.74 in1007.1 mb 0.00 in0.0 mm 0.00 in0.0 mm 0.00 in0.0 mm
03:30 PM 55.4°F13.0°C 47.6°F8.7°C 75% 6.4 mph WSW10.3 kmh WSW 12.5 mph20.1 kmh 29.77 in1008.1 mb 0.00 in0.0 mm 0.00 in0.0 mm 0.00 in0.0 mm
03:45 PM 55.0°F12.8°C 47.3°F8.5°C 75% 4.3 mph W6.9 kmh W 9.7 mph15.6 kmh 29.77 in1008.1 mb 0.00 in0.0 mm 0.00 in0.0 mm 0.00 in0.0 mm
04:00 PM 54.7°F12.6°C 46.6°F8.1°C 74% 4.8 mph WSW7.7 kmh WSW 10.4 mph16.7 kmh 29.74 in1007.1 mb 0.00 in0.0 mm 0.00 in0.0 mm 0.00 in0.0 mm
04:15 PM 54.7°F12.6°C 46.6°F8.1°C 74% 4.7 mph W7.6 kmh W 10.4 mph16.7 kmh 29.74 in1007.1 mb 0.00 in0.0 mm 0.00 in0.0 mm 0.00 in0.0 mm
04:30 PM 54.7°F12.6°C 46.6°F8.1°C 74% 4.9 mph W7.9 kmh W 11.8 mph19.0 kmh 29.74 in1007.1 mb 0.00 in0.0 mm 0.00 in0.0 mm 0.00 in0.0 mm
04:45 PM 54.5°F12.5°C 46.7°F8.2°C 75% 4.6 mph W7.4 kmh W 10.4 mph16.7 kmh 29.74 in1007.1 mb 0.00 in0.0 mm 0.00 in0.0 mm 0.00 in0.0 mm
05:00 PM 54.3°F12.4°C 46.6°F8.1°C 75% 3.4 mph W5.5 kmh W 11.8 mph19.0 kmh 29.74 in1007.1 mb 0.00 in0.0 mm 0.00 in0.0 mm 0.00 in0.0 mm
05:15 PM 54.1°F12.3°C 46.4°F8.0°C 75% 3.9 mph WSW6.3 kmh WSW 10.0 mph16.1 kmh 29.74 in1007.1 mb 0.00 in0.0 mm 0.00 in0.0 mm 0.00 in0.0 mm
05:30 PM 53.4°F11.9°C 45.3°F7.4°C 74% 3.3 mph W5.3 kmh W 10.0 mph16.1 kmh 29.74 in1007.1 mb 0.00 in0.0 mm 0.00 in0.0 mm 0.00 in0.0 mm
05:45 PM 52.9°F11.6°C 44.8°F7.1°C 74% 3.7 mph W6.0 kmh W 8.6 mph13.8 kmh 29.74 in1007.1 mb 0.00 in0.0 mm 0.00 in0.0 mm 0.00 in0.0 mm
06:00 PM 52.5°F11.4°C 44.5°F6.9°C 74% 3.5 mph W5.6 kmh W 9.7 mph15.6 kmh 29.74 in1007.1 mb 0.00 in0.0 mm 0.00 in0.0 mm 0.00 in0.0 mm
06:15 PM 52.3°F11.3°C 44.6°F7.0°C 75% 3.4 mph W5.5 kmh W 9.3 mph15.0 kmh 29.74 in1007.1 mb 0.00 in0.0 mm 0.00 in0.0 mm 0.00 in0.0 mm
06:30 PM 52.7°F11.5°C 45.3°F7.4°C 76% 4.6 mph W7.4 kmh W 12.5 mph20.1 kmh 29.74 in1007.1 mb 0.00 in0.0 mm 0.00 in0.0 mm 0.00 in0.0 mm
06:45 PM 52.7°F11.5°C 45.3°F7.4°C 76% 4.6 mph W7.4 kmh W 10.4 mph16.7 kmh 29.71 in1006.1 mb 0.00 in0.0 mm 0.00 in0.0 mm 0.00 in0.0 mm
07:00 PM 52.9°F11.6°C 45.5°F7.5°C 76% 4.1 mph W6.6 kmh W 9.3 mph15.0 kmh 29.74 in1007.1 mb 0.00 in0.0 mm 0.00 in0.0 mm 0.00 in0.0 mm
07:15 PM 52.9°F11.6°C 45.5°F7.5°C 76% 1.1 mph W1.8 kmh W 6.8 mph10.9 kmh 29.74 in1007.1 mb 0.00 in0.0 mm 0.00 in0.0 mm 0.00 in0.0 mm
07:30 PM 52.7°F11.5°C 45.0°F7.2°C 75% 1.3 mph W2.1 kmh W 6.4 mph10.3 kmh 29.74 in1007.1 mb 0.00 in0.0 mm 0.00 in0.0 mm 0.00 in0.0 mm
07:45 PM 52.7°F11.5°C 44.3°F6.8°C 73% 4.2 mph WNW6.8 kmh WNW 12.5 mph20.1 kmh 29.74 in1007.1 mb 0.00 in0.0 mm 0.00 in0.0 mm 0.00 in0.0 mm
08:00 PM 52.7°F11.5°C 43.9°F6.6°C 72% 2.5 mph W4.0 kmh W 9.3 mph15.0 kmh 29.74 in1007.1 mb 0.00 in0.0 mm 0.00 in0.0 mm 0.00 in0.0 mm
08:15 PM 52.7°F11.5°C 43.6°F6.4°C 71% 2.1 mph W3.4 kmh W 6.4 mph10.3 kmh 29.74 in1007.1 mb 0.00 in0.0 mm 0.00 in0.0 mm 0.00 in0.0 mm
08:30 PM 52.7°F11.5°C 43.2°F6.2°C 70% 3.1 mph W5.0 kmh W 12.9 mph20.8 kmh 29.74 in1007.1 mb 0.00 in0.0 mm 0.00 in0.0 mm 0.00 in0.0 mm
08:45 PM 52.5°F11.4°C 42.6°F5.9°C 69% 1.8 mph W2.9 kmh W 10.0 mph16.1 kmh 29.74 in1007.1 mb 0.00 in0.0 mm 0.00 in0.0 mm 0.00 in0.0 mm
09:00 PM 52.5°F11.4°C 42.3°F5.7°C 68% 3.6 mph W5.8 kmh W 10.4 mph16.7 kmh 29.74 in1007.1 mb 0.00 in0.0 mm 0.00 in0.0 mm 0.00 in0.0 mm
09:15 PM 52.5°F11.4°C 42.6°F5.9°C 69% 3.2 mph W5.1 kmh W 8.9 mph14.3 kmh 29.74 in1007.1 mb 0.00 in0.0 mm 0.00 in0.0 mm 0.00 in0.0 mm
09:30 PM 52.2°F11.2°C 42.3°F5.7°C 69% 2.8 mph W4.5 kmh W 9.7 mph15.6 kmh 29.74 in1007.1 mb 0.00 in0.0 mm 0.00 in0.0 mm 0.00 in0.0 mm
09:45 PM 52.0°F11.1°C 42.1°F5.6°C 69% 3.8 mph W6.1 kmh W 11.8 mph19.0 kmh 29.74 in1007.1 mb 0.00 in0.0 mm 0.00 in0.0 mm 0.00 in0.0 mm
10:00 PM 52.0°F11.1°C 42.1°F5.6°C 69% 3.5 mph W5.6 kmh W 9.7 mph15.6 kmh 29.74 in1007.1 mb 0.00 in0.0 mm 0.00 in0.0 mm 0.00 in0.0 mm
10:15 PM 52.0°F11.1°C 42.1°F5.6°C 69% 3.6 mph W5.8 kmh W 11.8 mph19.0 kmh 29.77 in1008.1 mb 0.00 in0.0 mm 0.00 in0.0 mm 0.00 in0.0 mm
10:30 PM 52.0°F11.1°C 42.1°F5.6°C 69% 4.3 mph WSW6.9 kmh WSW 13.6 mph21.9 kmh 29.74 in1007.1 mb 0.00 in0.0 mm 0.00 in0.0 mm 0.00 in0.0 mm
10:45 PM 51.6°F10.9°C 41.4°F5.2°C 68% 4.1 mph W6.6 kmh W 12.5 mph20.1 kmh 29.74 in1007.1 mb 0.00 in0.0 mm 0.00 in0.0 mm 0.00 in0.0 mm
11:00 PM 51.1°F10.6°C 40.9°F4.9°C 68% 3.9 mph W6.3 kmh W 9.3 mph15.0 kmh 29.74 in1007.1 mb 0.00 in0.0 mm 0.00 in0.0 mm 0.00 in0.0 mm
11:15 PM 50.4°F10.2°C 39.8°F4.3°C 67% 3.9 mph WNW6.3 kmh WNW 12.2 mph19.6 kmh 29.74 in1007.1 mb 0.00 in0.0 mm 0.00 in0.0 mm 0.00 in0.0 mm
11:30 PM 49.8°F9.9°C 39.3°F4.1°C 67% 3.6 mph W5.8 kmh W 10.4 mph16.7 kmh 29.71 in1006.1 mb 0.00 in0.0 mm 0.00 in0.0 mm 0.00 in0.0 mm
11:45 PM 49.3°F9.6°C 39.2°F4.0°C 68% 1.9 mph W3.1 kmh W 7.5 mph12.1 kmh 29.74 in1007.1 mb 0.00 in0.0 mm 0.00 in0.0 mm 0.00 in0.0 mm